aviador You're here:

KTCM Decoded Metar

TACOMA in WA, USA
Report Time2017-11-19 18:58:00
UTC Time2017-11-19 19:45:46
Flight Rules vfr VFR
Wind190° at 09 kt
W.Decomp.*RWY 16: 8.9 kt HW 1.6 kt RCW
W.Rank190° ranks 1
Current wind is above 190° avg. (6.4)
Visibility9999 m
Phenomena:N/A
Clouds:Overcast 060 Hf
Expected CloudBase > 4,000 ft AGL from Temp-Dew spread
Ceiling6,000 ft
Temp11°C (ISA -3)
Dew Point01°C (50% RH)
AAT5.9°C
QNH1012 hPa
Density Alt46 ft
Elevation322 ft
Report Wrong Elevation
Raw Report
KTCM 191858Z AUTO 19009KT 10SM OVC060 11/01 A2987 RMK AO2 SLP120
T01090014 $=

Extra information for KTCM:More info

Metar Taf Metar & Taf Last 4 Metars F.Rules Stats Wind Profile Meteogram Temp Stats Airport Information Weather charts Add Link Nearby VenuesMetar ALERT Operation Metar Decoded Social comments

AIRNAV info for KTCM